^^
Saratoga-Weather Station Historical Data
Daily Summary for July 11, 2020 Units:  Both    English   Metric
Daily Weekly Monthly Yearly
  High: Low: Average:
Temperature: 85.8 °F /  29.9 °C 70.5 °F /  21.4 °C 77.5 °F /  25.3 °C
Dew Point: 68 °F /  20 °C 61.7 °F /  16.5 °C 64.9 °F /  18.3 °C
Humidity: 80.3% 50.7% 66%
Wind Speed: 22.9mph /  36.9km/h - 6.2mph /  9.9km/h
Wind Gust: 29mph /  46.7km/h - -
Wind- - SSW
Pressure: 30 in /  1015.0 hPa 29.8 in /  1009.7 hPa -
Precipitation: 0 in /  0.0 mm    
 
 
Tabular Data for July 11, 2020
Time Temperature Dew Point Pressure Wind Wind Speed Wind Gust Humidity Rainfall Rate (Hourly) solar
00:04 79.2 °F /  26.2 °C 64.6 °F /  18.1 °C 29.9in /  1011.5hPa WNW 6.4mph /  10.3km/h 7mph /  11.3km/h 60.8% 0in /  0.0mm 0 W/m2
00:09 79.3 °F /  26.3 °C 64.6 °F /  18.1 °C 29.9in /  1011.5hPa West 5.2mph /  8.3km/h 9mph /  14.5km/h 61% 0in /  0.0mm 0 W/m2
00:14 79.2 °F /  26.2 °C 64.8 °F /  18.2 °C 29.9in /  1011.3hPa WNW 5mph /  8.1km/h 7mph /  11.3km/h 61.2% 0in /  0.0mm 0 W/m2
00:19 79.2 °F /  26.2 °C 65.1 °F /  18.4 °C 29.9in /  1011.2hPa NW 5.1mph /  8.2km/h 7mph /  11.3km/h 62% 0in /  0.0mm 0 W/m2
00:24 79.2 °F /  26.2 °C 65.3 °F /  18.5 °C 29.9in /  1011.1hPa WNW 4.7mph /  7.6km/h 8mph /  12.9km/h 62.3% 0in /  0.0mm 0 W/m2
00:29 79.2 °F /  26.2 °C 65.5 °F /  18.6 °C 29.9in /  1011.0hPa WNW 4.4mph /  7.1km/h 9mph /  14.5km/h 63% 0in /  0.0mm 0 W/m2
00:34 79.2 °F /  26.2 °C 65.5 °F /  18.6 °C 29.9in /  1011.1hPa West 5mph /  8km/h 6mph /  9.7km/h 63% 0in /  0.0mm 0 W/m2
00:39 79.2 °F /  26.2 °C 65.5 °F /  18.6 °C 29.9in /  1011.2hPa WSW 7.4mph /  11.9km/h 6mph /  9.7km/h 63% 0in /  0.0mm 0 W/m2
00:44 78.8 °F /  26 °C 65.3 °F /  18.5 °C 29.9in /  1011.2hPa WSW 6mph /  9.7km/h 9mph /  14.5km/h 63.7% 0in /  0.0mm 0 W/m2
00:49 78.1 °F /  25.6 °C 64.9 °F /  18.3 °C 29.9in /  1011.1hPa WSW 6.5mph /  10.5km/h 9mph /  14.5km/h 64% 0in /  0.0mm 0 W/m2
00:54 77.7 °F /  25.4 °C 64.9 °F /  18.3 °C 29.9in /  1011.0hPa West 5.8mph /  9.4km/h 8mph /  12.9km/h 64.5% 0in /  0.0mm 0 W/m2
00:59 77.5 °F /  25.3 °C 64.9 °F /  18.3 °C 29.9in /  1010.9hPa West 5mph /  8km/h 8mph /  12.9km/h 65.2% 0in /  0.0mm 0 W/m2
01:04 77.4 °F /  25.2 °C 65.1 °F /  18.4 °C 29.8in /  1010.7hPa WNW 2.9mph /  4.6km/h 6mph /  9.7km/h 66.2% 0in /  0.0mm 0 W/m2
01:09 77.4 °F /  25.2 °C 65.5 °F /  18.6 °C 29.9in /  1010.9hPa WSW 4.2mph /  6.7km/h 4.5mph /  7.2km/h 66.8% 0in /  0.0mm 0 W/m2
01:14 77.2 °F /  25.1 °C 65.7 °F /  18.7 °C 29.9in /  1010.9hPa WSW 7.8mph /  12.5km/h 8mph /  12.9km/h 67.5% 0in /  0.0mm 0 W/m2
01:19 76.8 °F /  24.9 °C 65.7 °F /  18.7 °C 29.9in /  1010.9hPa West 6.8mph /  10.9km/h 10mph /  16.1km/h 68.7% 0in /  0.0mm 0 W/m2
01:24 76.3 °F /  24.6 °C 65.7 °F /  18.7 °C 29.9in /  1010.9hPa WSW 5mph /  8km/h 7mph /  11.3km/h 69.7% 0in /  0.0mm 0 W/m2
01:29 76.1 °F /  24.5 °C 65.8 °F /  18.8 °C 29.9in /  1011.1hPa WSW 5.5mph /  8.8km/h 6mph /  9.7km/h 70.7% 0in /  0.0mm 0 W/m2
01:34 75.9 °F /  24.4 °C 66 °F /  18.9 °C 29.9in /  1011.1hPa WSW 7.4mph /  11.9km/h 8mph /  12.9km/h 71.5% 0in /  0.0mm 0 W/m2
01:39 75.7 °F /  24.3 °C 66.4 °F /  19.1 °C 29.9in /  1011.1hPa West 4.9mph /  7.9km/h 8mph /  12.9km/h 72.8% 0in /  0.0mm 0 W/m2
01:44 75.7 °F /  24.3 °C 66.7 °F /  19.3 °C 29.9in /  1011.1hPa West 5.5mph /  8.9km/h 5mph /  8km/h 73.7% 0in /  0.0mm 0 W/m2
01:49 75.6 °F /  24.2 °C 66.9 °F /  19.4 °C 29.9in /  1011.1hPa West 6.5mph /  10.4km/h 7mph /  11.3km/h 74.8% 0in /  0.0mm 0 W/m2
01:54 75.4 °F /  24.1 °C 67.1 °F /  19.5 °C 29.9in /  1011.1hPa West 4.9mph /  7.9km/h 7mph /  11.3km/h 75.3% 0in /  0.0mm 0 W/m2
01:59 75.4 °F /  24.1 °C 67.3 °F /  19.6 °C 29.9in /  1011.0hPa WSW 5.5mph /  8.8km/h 6mph /  9.7km/h 76% 0in /  0.0mm 0 W/m2
02:03 75.4 °F /  24.1 °C 67.3 °F /  19.6 °C 29.9in /  1010.9hPa WSW 4.7mph /  7.6km/h 7mph /  11.3km/h 76% 0in /  0.0mm 0 W/m2
02:09 75.4 °F /  24.1 °C 67.3 °F /  19.6 °C 29.9in /  1010.8hPa West 3.9mph /  6.3km/h 6mph /  9.7km/h 76% 0in /  0.0mm 0 W/m2
02:14 75.4 °F /  24.1 °C 67.3 °F /  19.6 °C 29.8in /  1010.7hPa West 3.1mph /  5km/h 4mph /  6.4km/h 76% 0in /  0.0mm 0 W/m2
02:19 75.7 °F /  24.3 °C 67.3 °F /  19.6 °C 29.8in /  1010.4hPa West 1.6mph /  2.6km/h 4mph /  6.4km/h 75.2% 0in /  0.0mm 0 W/m2
02:24 76.1 °F /  24.5 °C 67.1 °F /  19.5 °C 29.8in /  1010.3hPa West 2.8mph /  4.5km/h 3mph /  4.8km/h 74.2% 0in /  0.0mm 0 W/m2
02:29 76.3 °F /  24.6 °C 67.3 °F /  19.6 °C 29.8in /  1010.2hPa West 2.2mph /  3.6km/h 4mph /  6.4km/h 74% 0in /  0.0mm 0 W/m2
02:34 76.3 °F /  24.6 °C 67.6 °F /  19.8 °C 29.8in /  1010.2hPa West 1.6mph /  2.5km/h 4mph /  6.4km/h 74.6% 0in /  0.0mm 0 W/m2
02:39 75.7 °F /  24.3 °C 67.6 °F /  19.8 °C 29.8in /  1010.3hPa WSW 3.2mph /  5.2km/h 3.4mph /  5.5km/h 76% 0in /  0.0mm 0 W/m2
02:44 75.4 °F /  24.1 °C 67.6 °F /  19.8 °C 29.8in /  1010.4hPa WSW 5.3mph /  8.5km/h 5mph /  8km/h 77.1% 0in /  0.0mm 0 W/m2
02:49 75 °F /  23.9 °C 67.6 °F /  19.8 °C 29.8in /  1010.5hPa WSW 5.6mph /  9km/h 7mph /  11.3km/h 77.8% 0in /  0.0mm 0 W/m2
02:54 75 °F /  23.9 °C 67.6 °F /  19.8 °C 29.8in /  1010.6hPa WSW 7.5mph /  12.1km/h 7mph /  11.3km/h 78% 0in /  0.0mm 0 W/m2
02:59 75 °F /  23.9 °C 67.6 °F /  19.8 °C 29.8in /  1010.5hPa WSW 7.2mph /  11.6km/h 9mph /  14.5km/h 78% 0in /  0.0mm 0 W/m2
03:04 74.8 °F /  23.8 °C 67.6 °F /  19.8 °C 29.8in /  1010.6hPa West 7mph /  11.3km/h 9mph /  14.5km/h 78% 0in /  0.0mm 0 W/m2
03:09 74.7 °F /  23.7 °C 67.8 °F /  19.9 °C 29.8in /  1010.6hPa WSW 5.7mph /  9.2km/h 8mph /  12.9km/h 79% 0in /  0.0mm 0 W/m2
03:14 74.5 °F /  23.6 °C 67.6 °F /  19.8 °C 29.8in /  1010.4hPa West 6.4mph /  10.3km/h 7mph /  11.3km/h 79% 0in /  0.0mm 0 W/m2
03:19 74.5 °F /  23.6 °C 67.5 °F /  19.7 °C 29.8in /  1010.4hPa WSW 6.4mph /  10.3km/h 8mph /  12.9km/h 79% 0in /  0.0mm 0 W/m2
03:24 74.3 °F /  23.5 °C 67.5 °F /  19.7 °C 29.8in /  1010.2hPa WSW 7mph /  11.3km/h 8mph /  12.9km/h 79% 0in /  0.0mm 0 W/m2
03:29 74.3 °F /  23.5 °C 67.5 °F /  19.7 °C 29.8in /  1010.3hPa WSW 6.6mph /  10.6km/h 7mph /  11.3km/h 79% 0in /  0.0mm 0 W/m2
03:34 74.3 °F /  23.5 °C 67.5 °F /  19.7 °C 29.8in /  1010.3hPa WSW 5.6mph /  9km/h 8mph /  12.9km/h 79% 0in /  0.0mm 0 W/m2
03:39 74.5 °F /  23.6 °C 67.5 °F /  19.7 °C 29.8in /  1010.3hPa WSW 6mph /  9.6km/h 7mph /  11.3km/h 79% 0in /  0.0mm 0 W/m2
03:44 74.5 °F /  23.6 °C 67.6 °F /  19.8 °C 29.8in /  1010.2hPa West 5.7mph /  9.1km/h 7mph /  11.3km/h 79% 0in /  0.0mm 0 W/m2
03:49 74.5 °F /  23.6 °C 67.6 °F /  19.8 °C 29.8in /  1010.1hPa WSW 5.6mph /  9km/h 7mph /  11.3km/h 79% 0in /  0.0mm 0 W/m2
03:54 74.5 °F /  23.6 °C 67.3 °F /  19.6 °C 29.8in /  1010.1hPa WSW 5.6mph /  9km/h 8mph /  12.9km/h 78.2% 0in /  0.0mm 0 W/m2
03:58 74.5 °F /  23.6 °C 67.1 °F /  19.5 °C 29.8in /  1010.1hPa WSW 3.5mph /  5.7km/h 7mph /  11.3km/h 77.7% 0in /  0.0mm 0 W/m2
04:04 74.7 °F /  23.7 °C 66.9 °F /  19.4 °C 29.8in /  1010.2hPa West 5mph /  8km/h 6mph /  9.7km/h 77% 0in /  0.0mm 0 W/m2
04:09 74.5 °F /  23.6 °C 66.9 °F /  19.4 °C 29.8in /  1010.1hPa West 4.2mph /  6.8km/h 7mph /  11.3km/h 77% 0in /  0.0mm 0 W/m2
04:14 74.5 °F /  23.6 °C 66.6 °F /  19.2 °C 29.8in /  1010.2hPa West 5.7mph /  9.2km/h 6mph /  9.7km/h 76.6% 0in /  0.0mm 0 W/m2
04:19 74.7 °F /  23.7 °C 66.6 °F /  19.2 °C 29.8in /  1010.0hPa West 4mph /  6.4km/h 7mph /  11.3km/h 76.3% 0in /  0.0mm 0 W/m2
04:24 74.7 °F /  23.7 °C 66.6 °F /  19.2 °C 29.8in /  1009.9hPa West 3.8mph /  6.1km/h 5mph /  8km/h 76% 0in /  0.0mm 0 W/m2
04:29 74.8 °F /  23.8 °C 66.6 °F /  19.2 °C 29.8in /  1009.9hPa WSW 3.3mph /  5.3km/h 5mph /  8km/h 75.8% 0in /  0.0mm 0 W/m2
04:34 74.8 °F /  23.8 °C 66.6 °F /  19.2 °C 29.8in /  1009.8hPa West 3.4mph /  5.4km/h 4mph /  6.4km/h 75.3% 0in /  0.0mm 0 W/m2
04:38 74.8 °F /  23.8 °C 66.4 °F /  19.1 °C 29.8in /  1009.8hPa West 4.3mph /  7km/h 5mph /  8km/h 74.8% 0in /  0.0mm 0 W/m2
04:44 74.8 °F /  23.8 °C 66.4 °F /  19.1 °C 29.8in /  1009.7hPa West 3.9mph /  6.3km/h 5mph /  8km/h 75% 0in /  0.0mm 0 W/m2
04:49 74.8 °F /  23.8 °C 66.4 °F /  19.1 °C 29.8in /  1009.8hPa West 3.7mph /  6km/h 5mph /  8km/h 75% 0in /  0.0mm 0 W/m2
04:54 74.7 °F /  23.7 °C 66.4 °F /  19.1 °C 29.8in /  1009.9hPa West 3.8mph /  6.1km/h 4mph /  6.4km/h 75.3% 0in /  0.0mm 0 W/m2
04:59 74.7 °F /  23.7 °C 66.6 °F /  19.2 °C 29.8in /  1009.9hPa West 3mph /  4.8km/h 5mph /  8km/h 76% 0in /  0.0mm 0 W/m2
05:04 74.5 °F /  23.6 °C 66.4 °F /  19.1 °C 29.8in /  1009.8hPa West 2.5mph /  4km/h 3mph /  4.8km/h 76% 0in /  0.0mm 0 W/m2
05:09 74.3 °F /  23.5 °C 66.6 °F /  19.2 °C 29.8in /  1009.9hPa West 1.5mph /  2.4km/h 3mph /  4.8km/h 76.5% 0in /  0.0mm 0 W/m2
05:14 74.3 °F /  23.5 °C 66.6 °F /  19.2 °C 29.8in /  1009.9hPa Calm   3mph /  4.8km/h 77% 0in /  0.0mm 0 W/m2
05:19 74.3 °F /  23.5 °C 66.2 °F /  19 °C 29.8in /  1010.0hPa West 1.4mph /  2.3km/h 1.8mph /  2.9km/h 76.1% 0in /  0.0mm 0 W/m2
05:24 74.3 °F /  23.5 °C 66.4 °F /  19.1 °C 29.8in /  1010.1hPa West 3.4mph /  5.5km/h 5mph /  8km/h 76.5% 0in /  0.0mm 0 W/m2
05:29 74.3 °F /  23.5 °C 66.4 °F /  19.1 °C 29.8in /  1010.1hPa WNW 3.7mph /  6km/h 4mph /  6.4km/h 76.4% 0in /  0.0mm 0 W/m2
05:34 74.3 °F /  23.5 °C 66.6 °F /  19.2 °C 29.8in /  1010.2hPa West 4mph /  6.4km/h 5mph /  8km/h 77% 0in /  0.0mm 0 W/m2
05:38 74.1 °F /  23.4 °C 66.6 °F /  19.2 °C 29.8in /  1010.2hPa West 5.5mph /  8.9km/h 6mph /  9.7km/h 77% 0in /  0.0mm 0 W/m2
05:44 74.1 °F /  23.4 °C 66.6 °F /  19.2 °C 29.8in /  1010.2hPa West 5mph /  8km/h 8mph /  12.9km/h 77.5% 0in /  0.0mm 0 W/m2
05:49 73.9 °F /  23.3 °C 66.6 °F /  19.2 °C 29.8in /  1010.2hPa West 4.6mph /  7.4km/h 6mph /  9.7km/h 78% 0in /  0.0mm 0 W/m2
05:53 73.8 °F /  23.2 °C 66.6 °F /  19.2 °C 29.8in /  1010.3hPa WNW 5.4mph /  8.7km/h 6mph /  9.7km/h 78% 0in /  0.0mm 0 W/m2
05:59 73.8 °F /  23.2 °C 66.6 °F /  19.2 °C 29.8in /  1010.3hPa WNW 4.7mph /  7.5km/h 7mph /  11.3km/h 78% 0in /  0.0mm 0 W/m2
06:04 73.9 °F /  23.3 °C 66 °F /  18.9 °C 29.8in /  1010.3hPa WNW 5.1mph /  8.2km/h 8mph /  12.9km/h 76.3% 0in /  0.0mm 5 W/m2
06:09 74.1 °F /  23.4 °C 65.5 °F /  18.6 °C 29.8in /  1010.3hPa West 5.2mph /  8.3km/h 5.7mph /  9.2km/h 74.4% 0in /  0.0mm 7 W/m2
06:14 74.3 °F /  23.5 °C 64.9 °F /  18.3 °C 29.8in /  1010.3hPa WNW 5.1mph /  8.2km/h 7mph /  11.3km/h 72.5% 0in /  0.0mm 12 W/m2
06:19 74.5 °F /  23.6 °C 64.4 °F /  18 °C 29.8in /  1010.3hPa West 4.3mph /  7km/h 6mph /  9.7km/h 70.8% 0in /  0.0mm 14 W/m2
06:24 74.7 °F /  23.7 °C 64 °F /  17.8 °C 29.8in /  1010.3hPa West 5.4mph /  8.7km/h 5mph /  8km/h 69.6% 0in /  0.0mm 14 W/m2
06:29 74.8 °F /  23.8 °C 63.9 °F /  17.7 °C 29.8in /  1010.3hPa West 5.1mph /  8.2km/h 7mph /  11.3km/h 69% 0in /  0.0mm 16 W/m2
06:34 74.8 °F /  23.8 °C 63.9 °F /  17.7 °C 29.8in /  1010.3hPa West 4.6mph /  7.4km/h 7mph /  11.3km/h 69% 0in /  0.0mm 21 W/m2
06:39 74.7 °F /  23.7 °C 64 °F /  17.8 °C 29.8in /  1010.3hPa West 5.2mph /  8.3km/h 6mph /  9.7km/h 69.5% 0in /  0.0mm 23 W/m2
06:44 74.7 °F /  23.7 °C 64.2 °F /  17.9 °C 29.8in /  1010.3hPa West 4.1mph /  6.6km/h 7mph /  11.3km/h 70% 0in /  0.0mm 25 W/m2
06:49 74.5 °F /  23.6 °C 64.4 °F /  18 °C 29.8in /  1010.3hPa West 5.2mph /  8.4km/h 6mph /  9.7km/h 70.7% 0in /  0.0mm 30 W/m2
06:54 74.5 °F /  23.6 °C 64.4 °F /  18 °C 29.8in /  1010.3hPa West 4.4mph /  7.1km/h 6mph /  9.7km/h 71% 0in /  0.0mm 46 W/m2
06:59 74.3 °F /  23.5 °C 64.6 °F /  18.1 °C 29.8in /  1010.4hPa West 4.8mph /  7.8km/h 6mph /  9.7km/h 71.3% 0in /  0.0mm 72 W/m2
07:03 74.3 °F /  23.5 °C 64.8 °F /  18.2 °C 29.8in /  1010.4hPa West 4.5mph /  7.3km/h 6mph /  9.7km/h 72.4% 0in /  0.0mm 72 W/m2
07:09 74.1 °F /  23.4 °C 64.9 °F /  18.3 °C 29.8in /  1010.5hPa West 4.7mph /  7.6km/h 6mph /  9.7km/h 73% 0in /  0.0mm 76 W/m2
07:14 74.1 °F /  23.4 °C 64.8 °F /  18.2 °C 29.8in /  1010.5hPa West 3.6mph /  5.8km/h 6mph /  9.7km/h 72.7% 0in /  0.0mm 76 W/m2
07:19 74.3 °F /  23.5 °C 64.6 °F /  18.1 °C 29.8in /  1010.5hPa WNW 4.8mph /  7.7km/h 5mph /  8km/h 71.6% 0in /  0.0mm 90 W/m2
07:24 74.5 °F /  23.6 °C 64.6 °F /  18.1 °C 29.8in /  1010.6hPa WNW 4.9mph /  7.9km/h 7mph /  11.3km/h 71% 0in /  0.0mm 111 W/m2
07:29 74.7 °F /  23.7 °C 64.8 °F /  18.2 °C 29.8in /  1010.6hPa NW 4.7mph /  7.5km/h 6mph /  9.7km/h 71.5% 0in /  0.0mm 130 W/m2
07:34 74.7 °F /  23.7 °C 64.6 °F /  18.1 °C 29.8in /  1010.6hPa NW 6.6mph /  10.6km/h 8mph /  12.9km/h 71% 0in /  0.0mm 130 W/m2
07:39 74.7 °F /  23.7 °C 64.6 °F /  18.1 °C 29.8in /  1010.5hPa NW 5.3mph /  8.5km/h 8mph /  12.9km/h 70.6% 0in /  0.0mm 116 W/m2
07:44 74.8 °F /  23.8 °C 64.4 °F /  18 °C 29.8in /  1010.5hPa WNW 7mph /  11.3km/h 9mph /  14.5km/h 69.8% 0in /  0.0mm 95 W/m2
07:49 74.8 °F /  23.8 °C 64 °F /  17.8 °C 29.8in /  1010.4hPa NW 5.3mph /  8.6km/h 9mph /  14.5km/h 69.2% 0in /  0.0mm 144 W/m2
07:54 75 °F /  23.9 °C 64 °F /  17.8 °C 29.8in /  1010.4hPa West 4.2mph /  6.7km/h 7mph /  11.3km/h 68.7% 0in /  0.0mm 211 W/m2
07:59 75.4 °F /  24.1 °C 63.9 °F /  17.7 °C 29.8in /  1010.4hPa WNW 5.2mph /  8.3km/h 7mph /  11.3km/h 67.1% 0in /  0.0mm 220 W/m2
08:04 75.9 °F /  24.4 °C 63.9 °F /  17.7 °C 29.8in /  1010.4hPa WNW 5.8mph /  9.4km/h 6mph /  9.7km/h 66.2% 0in /  0.0mm 227 W/m2
08:09 76.1 °F /  24.5 °C 63.7 °F /  17.6 °C 29.8in /  1010.5hPa West 6.6mph /  10.7km/h 8mph /  12.9km/h 65.3% 0in /  0.0mm 237 W/m2
08:14 76.3 °F /  24.6 °C 63.5 °F /  17.5 °C 29.8in /  1010.5hPa West 9.1mph /  14.7km/h 9mph /  14.5km/h 64.7% 0in /  0.0mm 241 W/m2
08:19 76.3 °F /  24.6 °C 63.7 °F /  17.6 °C 29.8in /  1010.5hPa WNW 6.8mph /  11km/h 12mph /  19.3km/h 65% 0in /  0.0mm 244 W/m2
08:24 76.3 °F /  24.6 °C 63.9 °F /  17.7 °C 29.8in /  1010.5hPa West 6mph /  9.7km/h 8mph /  12.9km/h 65.5% 0in /  0.0mm 258 W/m2
08:29 76.5 °F /  24.7 °C 63.9 °F /  17.7 °C 29.8in /  1010.5hPa West 10.1mph /  16.2km/h 8mph /  12.9km/h 65% 0in /  0.0mm 287 W/m2
08:34 76.3 °F /  24.6 °C 63.7 °F /  17.6 °C 29.8in /  1010.5hPa West 8.1mph /  13km/h 12mph /  19.3km/h 64.8% 0in /  0.0mm 294 W/m2
08:39 76.3 °F /  24.6 °C 63.7 °F /  17.6 °C 29.8in /  1010.6hPa West 8.8mph /  14.2km/h 9mph /  14.5km/h 65% 0in /  0.0mm 299 W/m2
08:43 76.5 °F /  24.7 °C 63.7 °F /  17.6 °C 29.8in /  1010.6hPa WSW 9.6mph /  15.4km/h 10mph /  16.1km/h 64.8% 0in /  0.0mm 320 W/m2
08:49 76.6 °F /  24.8 °C 63.9 °F /  17.7 °C 29.8in /  1010.6hPa WSW 8.5mph /  13.7km/h 12mph /  19.3km/h 64.9% 0in /  0.0mm 350 W/m2
08:54 76.8 °F /  24.9 °C 63.9 °F /  17.7 °C 29.8in /  1010.5hPa West 7.7mph /  12.4km/h 12mph /  19.3km/h 64.3% 0in /  0.0mm 369 W/m2
08:59 77 °F /  25 °C 63.5 °F /  17.5 °C 29.8in /  1010.5hPa West 8.1mph /  13km/h 9mph /  14.5km/h 63% 0in /  0.0mm 371 W/m2
09:04 77.4 °F /  25.2 °C 63 °F /  17.2 °C 29.8in /  1010.5hPa WNW 8.6mph /  13.9km/h 9mph /  14.5km/h 61.2% 0in /  0.0mm 378 W/m2
09:09 77.7 °F /  25.4 °C 63 °F /  17.2 °C 29.8in /  1010.6hPa West 7.4mph /  11.9km/h 10mph /  16.1km/h 60.7% 0in /  0.0mm 374 W/m2
09:14 77.9 °F /  25.5 °C 63 °F /  17.2 °C 29.8in /  1010.6hPa West 6.9mph /  11.1km/h 9mph /  14.5km/h 60% 0in /  0.0mm 380 W/m2
09:19 78.1 °F /  25.6 °C 62.8 °F /  17.1 °C 29.8in /  1010.6hPa West 8mph /  12.9km/h 12mph /  19.3km/h 59.3% 0in /  0.0mm 388 W/m2
09:24 78.4 °F /  25.8 °C 63 °F /  17.2 °C 29.8in /  1010.6hPa WNW 6.3mph /  10.1km/h 10mph /  16.1km/h 59.2% 0in /  0.0mm 399 W/m2
09:29 78.4 °F /  25.8 °C 62.8 °F /  17.1 °C 29.8in /  1010.6hPa West 7.7mph /  12.4km/h 10mph /  16.1km/h 58.8% 0in /  0.0mm 406 W/m2
09:34 78.4 °F /  25.8 °C 63 °F /  17.2 °C 29.8in /  1010.6hPa West 7.8mph /  12.5km/h 10mph /  16.1km/h 59% 0in /  0.0mm 418 W/m2
09:38 78.6 °F /  25.9 °C 62.4 °F /  16.9 °C 29.8in /  1010.6hPa West 7.5mph /  12km/h 9mph /  14.5km/h 57.6% 0in /  0.0mm 438 W/m2
09:44 78.8 °F /  26 °C 62.1 °F /  16.7 °C 29.8in /  1010.6hPa West 6mph /  9.7km/h 8mph /  12.9km/h 56.8% 0in /  0.0mm 461 W/m2
09:49 79.3 °F /  26.3 °C 62.1 °F /  16.7 °C 29.8in /  1010.7hPa NW 7.8mph /  12.6km/h 7mph /  11.3km/h 55.4% 0in /  0.0mm 492 W/m2
09:54 79.5 °F /  26.4 °C 62.2 °F /  16.8 °C 29.8in /  1010.7hPa NW 7mph /  11.2km/h 10mph /  16.1km/h 55.3% 0in /  0.0mm 520 W/m2
09:59 79.7 °F /  26.5 °C 61.9 °F /  16.6 °C 29.8in /  1010.7hPa NW 8.9mph /  14.3km/h 9mph /  14.5km/h 54.6% 0in /  0.0mm 538 W/m2
10:04 79.7 °F /  26.5 °C 62.1 °F /  16.7 °C 29.9in /  1010.8hPa NW 9.3mph /  15km/h 10mph /  16.1km/h 55% 0in /  0.0mm 570 W/m2
10:08 79.9 °F /  26.6 °C 62.1 °F /  16.7 °C 29.9in /  1010.8hPa WNW 9.1mph /  14.7km/h 10mph /  16.1km/h 54.6% 0in /  0.0mm 578 W/m2
10:14 79.9 °F /  26.6 °C 62.2 °F /  16.8 °C 29.9in /  1010.8hPa NW 7mph /  11.2km/h 12mph /  19.3km/h 55% 0in /  0.0mm 596 W/m2
10:19 80.2 °F /  26.8 °C 63 °F /  17.2 °C 29.9in /  1010.8hPa WNW 5.8mph /  9.4km/h 9mph /  14.5km/h 55.7% 0in /  0.0mm 608 W/m2
10:23 80.4 °F /  26.9 °C 62.4 °F /  16.9 °C 29.9in /  1010.8hPa WNW 7.8mph /  12.6km/h 7mph /  11.3km/h 54.4% 0in /  0.0mm 613 W/m2
10:29 80.6 °F /  27 °C 62.2 °F /  16.8 °C 29.9in /  1010.8hPa West 7.4mph /  11.9km/h 9mph /  14.5km/h 53.7% 0in /  0.0mm 626 W/m2
10:34 80.6 °F /  27 °C 62.6 °F /  17 °C 29.9in /  1010.8hPa West 8.4mph /  13.5km/h 10mph /  16.1km/h 54.3% 0in /  0.0mm 652 W/m2
10:39 81 °F /  27.2 °C 63 °F /  17.2 °C 29.9in /  1010.9hPa West 7.3mph /  11.8km/h 10mph /  16.1km/h 54.6% 0in /  0.0mm 656 W/m2
10:44 81 °F /  27.2 °C 63 °F /  17.2 °C 29.9in /  1010.8hPa West 7.8mph /  12.5km/h 10mph /  16.1km/h 54.3% 0in /  0.0mm 649 W/m2
10:49 81.3 °F /  27.4 °C 63.5 °F /  17.5 °C 29.9in /  1010.8hPa WSW 6.6mph /  10.7km/h 10mph /  16.1km/h 54.7% 0in /  0.0mm 684 W/m2
10:54 81.3 °F /  27.4 °C 63.1 °F /  17.3 °C 29.9in /  1010.8hPa WSW 8mph /  12.9km/h 7.9mph /  12.7km/h 54.2% 0in /  0.0mm 726 W/m2
10:59 81.5 °F /  27.5 °C 63.3 °F /  17.4 °C 29.9in /  1010.8hPa WNW 7.6mph /  12.2km/h 10mph /  16.1km/h 54.2% 0in /  0.0mm 763 W/m2
11:04 81.3 °F /  27.4 °C 63.1 °F /  17.3 °C 29.9in /  1010.9hPa West 8.6mph /  13.9km/h 10mph /  16.1km/h 53.8% 0in /  0.0mm 729 W/m2
11:08 81.3 °F /  27.4 °C 63.3 °F /  17.4 °C 29.9in /  1010.9hPa West 7.3mph /  11.7km/h 10mph /  16.1km/h 54.4% 0in /  0.0mm 735 W/m2
11:14 81.3 °F /  27.4 °C 63.1 °F /  17.3 °C 29.9in /  1010.8hPa WSW 7.6mph /  12.2km/h 9mph /  14.5km/h 54% 0in /  0.0mm 404 W/m2
11:19 81.5 °F /  27.5 °C 63.7 °F /  17.6 °C 29.9in /  1010.9hPa WNW 5.8mph /  9.3km/h 9mph /  14.5km/h 54.7% 0in /  0.0mm 788 W/m2
11:23 82 °F /  27.8 °C 63.7 °F /  17.6 °C 29.9in /  1010.9hPa WSW 6.2mph /  9.9km/h 8mph /  12.9km/h 54% 0in /  0.0mm 738 W/m2
11:29 81.9 °F /  27.7 °C 64.4 °F /  18 °C 29.9in /  1010.9hPa WSW 7mph /  11.2km/h 9mph /  14.5km/h 55.5% 0in /  0.0mm 715 W/m2
11:33 81.9 °F /  27.7 °C 64.6 °F /  18.1 °C 29.9in /  1010.9hPa SW 7.9mph /  12.7km/h 8mph /  12.9km/h 55.8% 0in /  0.0mm 647 W/m2
11:39 81.9 °F /  27.7 °C 64.4 °F /  18 °C 29.9in /  1010.9hPa West 6mph /  9.6km/h 9mph /  14.5km/h 55.7% 0in /  0.0mm 777 W/m2
11:44 82 °F /  27.8 °C 64.6 °F /  18.1 °C 29.9in /  1010.9hPa WSW 5.4mph /  8.7km/h 7mph /  11.3km/h 55.8% 0in /  0.0mm 782 W/m2
11:48 82.2 °F /  27.9 °C 65.3 °F /  18.5 °C 29.9in /  1011.0hPa West 5.5mph /  8.9km/h 8mph /  12.9km/h 56.8% 0in /  0.0mm 786 W/m2
11:54 82.2 °F /  27.9 °C 64.9 °F /  18.3 °C 29.9in /  1010.9hPa SW 5.6mph /  9km/h 6mph /  9.7km/h 55.9% 0in /  0.0mm 789 W/m2
11:58 82.6 °F /  28.1 °C 64.6 °F /  18.1 °C 29.9in /  1010.9hPa SSW 6.2mph /  9.9km/h 8mph /  12.9km/h 54.6% 0in /  0.0mm 798 W/m2
12:04 82.9 °F /  28.3 °C 65.1 °F /  18.4 °C 29.9in /  1010.9hPa WSW 6.1mph /  9.8km/h 8mph /  12.9km/h 55% 0in /  0.0mm 807 W/m2
12:09 82.9 °F /  28.3 °C 64.9 °F /  18.3 °C 29.9in /  1011.0hPa SW 5.2mph /  8.4km/h 7mph /  11.3km/h 54.7% 0in /  0.0mm 816 W/m2
12:14 82.9 °F /  28.3 °C 64.4 °F /  18 °C 29.9in /  1011.0hPa SW 6mph /  9.6km/h 7mph /  11.3km/h 53.7% 0in /  0.0mm 821 W/m2
12:19 83.3 °F /  28.5 °C 64.2 °F /  17.9 °C 29.9in /  1011.0hPa SW 4.7mph /  7.6km/h 7mph /  11.3km/h 52.6% 0in /  0.0mm 824 W/m2
12:24 83.5 °F /  28.6 °C 64 °F /  17.8 °C 29.9in /  1011.0hPa SW 5.3mph /  8.6km/h 7mph /  11.3km/h 52% 0in /  0.0mm 826 W/m2
12:29 83.7 °F /  28.7 °C 64.2 °F /  17.9 °C 29.9in /  1011.1hPa SW 5mph /  8km/h 7mph /  11.3km/h 52% 0in /  0.0mm 831 W/m2
12:34 83.5 °F /  28.6 °C 64.4 °F /  18 °C 29.9in /  1011.1hPa West 3.5mph /  5.7km/h 7mph /  11.3km/h 52.8% 0in /  0.0mm 831 W/m2
12:39 83.8 °F /  28.8 °C 64.6 °F /  18.1 °C 29.9in /  1011.0hPa SW 6.5mph /  10.5km/h 8mph /  12.9km/h 52.5% 0in /  0.0mm 830 W/m2
12:44 83.8 °F /  28.8 °C 64.2 °F /  17.9 °C 29.9in /  1011.0hPa South 7mph /  11.3km/h 8mph /  12.9km/h 51.7% 0in /  0.0mm 835 W/m2
12:49 84.4 °F /  29.1 °C 64.2 °F /  17.9 °C 29.9in /  1010.9hPa SSW 5.6mph /  9km/h 8mph /  12.9km/h 51% 0in /  0.0mm 835 W/m2
12:54 84.7 °F /  29.3 °C 64.4 °F /  18 °C 29.9in /  1010.9hPa SSW 6.1mph /  9.8km/h 7mph /  11.3km/h 50.7% 0in /  0.0mm 838 W/m2
12:59 84.4 °F /  29.1 °C 64.9 °F /  18.3 °C 29.9in /  1010.8hPa SW 6.8mph /  11km/h 7mph /  11.3km/h 52.3% 0in /  0.0mm 858 W/m2
13:04 84.4 °F /  29.1 °C 64.9 °F /  18.3 °C 29.9in /  1010.8hPa SSW 5.7mph /  9.1km/h 8mph /  12.9km/h 52.2% 0in /  0.0mm 874 W/m2
13:09 84.4 °F /  29.1 °C 65.1 °F /  18.4 °C 29.9in /  1010.8hPa SSW 8.4mph /  13.6km/h 7.5mph /  12.1km/h 52.5% 0in /  0.0mm 870 W/m2
13:14 84.7 °F /  29.3 °C 65.7 °F /  18.7 °C 29.9in /  1010.8hPa SSW 7mph /  11.3km/h 12mph /  19.3km/h 53% 0in /  0.0mm 888 W/m2
13:19 84.7 °F /  29.3 °C 65.7 °F /  18.7 °C 29.8in /  1010.7hPa SSW 8.6mph /  13.8km/h 9mph /  14.5km/h 53% 0in /  0.0mm 891 W/m2
13:24 84.4 °F /  29.1 °C 65.7 °F /  18.7 °C 29.8in /  1010.6hPa SSW 8.1mph /  13km/h 10mph /  16.1km/h 53.7% 0in /  0.0mm 877 W/m2
13:29 84.4 °F /  29.1 °C 66 °F /  18.9 °C 29.8in /  1010.5hPa SSW 6.8mph /  11km/h 10mph /  16.1km/h 54.3% 0in /  0.0mm 879 W/m2
13:34 84.9 °F /  29.4 °C 66.7 °F /  19.3 °C 29.8in /  1010.5hPa West 5.8mph /  9.4km/h 7mph /  11.3km/h 54.4% 0in /  0.0mm 882 W/m2
13:39 84.9 °F /  29.4 °C 66.9 °F /  19.4 °C 29.8in /  1010.4hPa WSW 6.5mph /  10.5km/h 9mph /  14.5km/h 54.8% 0in /  0.0mm 882 W/m2
13:44 84.6 °F /  29.2 °C 66.9 °F /  19.4 °C 29.8in /  1010.3hPa WSW 6.3mph /  10.2km/h 9mph /  14.5km/h 55.3% 0in /  0.0mm 874 W/m2
13:49 84.6 °F /  29.2 °C 67.3 °F /  19.6 °C 29.8in /  1010.2hPa SW 5.3mph /  8.6km/h 6mph /  9.7km/h 56.3% 0in /  0.0mm 874 W/m2
13:54 85.1 °F /  29.5 °C 67.5 °F /  19.7 °C 29.8in /  1010.2hPa SSW 8.3mph /  13.3km/h 9mph /  14.5km/h 55.8% 0in /  0.0mm 888 W/m2
13:59 85.3 °F /  29.6 °C 67.1 °F /  19.5 °C 29.8in /  1010.0hPa SW 5.2mph /  8.3km/h 10mph /  16.1km/h 54.8% 0in /  0.0mm 893 W/m2
14:04 85.3 °F /  29.6 °C 66.9 °F /  19.4 °C 29.8in /  1010.0hPa South 6mph /  9.7km/h 7.4mph /  11.9km/h 54.5% 0in /  0.0mm 900 W/m2
14:09 85.1 °F /  29.5 °C 66.2 °F /  19 °C 29.8in /  1010.0hPa SW 7mph /  11.3km/h 12mph /  19.3km/h 53.3% 0in /  0.0mm 907 W/m2
14:14 85.3 °F /  29.6 °C 66.2 °F /  19 °C 29.8in /  1010.2hPa SW 4.8mph /  7.8km/h 9mph /  14.5km/h 52.8% 0in /  0.0mm 981 W/m2
14:19 85.5 °F /  29.7 °C 66.7 °F /  19.3 °C 29.8in /  1010.2hPa SW 4.1mph /  6.6km/h 8mph /  12.9km/h 53.7% 0in /  0.0mm 1011 W/m2
14:24 84.9 °F /  29.4 °C 66 °F /  18.9 °C 29.8in /  1010.2hPa SSW 6.7mph /  10.8km/h 6.3mph /  10.1km/h 53.2% 0in /  0.0mm 1150 W/m2
14:29 85.1 °F /  29.5 °C 66.6 °F /  19.2 °C 29.8in /  1010.0hPa SW 7.5mph /  12km/h 9mph /  14.5km/h 53.8% 0in /  0.0mm 1150 W/m2
14:33 85.8 °F /  29.9 °C 67.1 °F /  19.5 °C 29.8in /  1010.1hPa SW 8.6mph /  13.9km/h 9mph /  14.5km/h 54% 0in /  0.0mm 798 W/m2
14:39 85.3 °F /  29.6 °C 67.1 °F /  19.5 °C 29.8in /  1010.4hPa WSW 6mph /  9.6km/h 9mph /  14.5km/h 54.8% 0in /  0.0mm 568 W/m2
14:44 84.7 °F /  29.3 °C 67.3 °F /  19.6 °C 29.8in /  1010.4hPa West 5.5mph /  8.9km/h 7mph /  11.3km/h 55.8% 0in /  0.0mm 192 W/m2
14:49 84.7 °F /  29.3 °C 67.5 °F /  19.7 °C 29.8in /  1010.5hPa West 7.2mph /  11.6km/h 9mph /  14.5km/h 56.3% 0in /  0.0mm 172 W/m2
14:54 84.6 °F /  29.2 °C 67.8 °F /  19.9 °C 29.8in /  1010.6hPa West 7.7mph /  12.4km/h 8mph /  12.9km/h 57.3% 0in /  0.0mm 207 W/m2
14:59 84.4 °F /  29.1 °C 68 °F /  20 °C 29.8in /  1010.6hPa WNW 8.6mph /  13.8km/h 9mph /  14.5km/h 58% 0in /  0.0mm 218 W/m2
15:04 83.8 °F /  28.8 °C 67.8 °F /  19.9 °C 29.9in /  1010.9hPa NW 7.8mph /  12.5km/h 10mph /  16.1km/h 58.9% 0in /  0.0mm 171 W/m2
15:08 82 °F /  27.8 °C 64.9 °F /  18.3 °C 29.9in /  1011.3hPa NNW 22.9mph /  36.9km/h 23mph /  37km/h 56.4% 0in /  0.0mm 98 W/m2
15:14 76.3 °F /  24.6 °C 62.1 °F /  16.7 °C 29.9in /  1011.6hPa NNW 20.8mph /  33.5km/h 29mph /  46.7km/h 61.5% 0in /  0.0mm 183 W/m2
15:19 72.9 °F /  22.7 °C 61.9 °F /  16.6 °C 29.9in /  1011.6hPa North 17.9mph /  28.8km/h 22mph /  35.4km/h 68.3% 0in /  0.0mm 165 W/m2
15:29 71.4 °F /  21.9 °C 61.7 °F /  16.5 °C 29.9in /  1011.4hPa North 14.4mph /  23.2km/h 20mph /  32.2km/h 71.3% 0in /  0.0mm 357 W/m2
15:34 72 °F /  22.2 °C 61.7 °F /  16.5 °C 29.9in /  1011.4hPa NNE 12.1mph /  19.4km/h 17mph /  27.4km/h 70.1% 0in /  0.0mm 353 W/m2
15:39 72.3 °F /  22.4 °C 62.1 °F /  16.7 °C 29.9in /  1011.4hPa North 10.4mph /  16.8km/h 13mph /  20.9km/h 70% 0in /  0.0mm 288 W/m2
15:44 72.7 °F /  22.6 °C 62.2 °F /  16.8 °C 29.9in /  1011.2hPa North 10.7mph /  17.2km/h 12mph /  19.3km/h 70% 0in /  0.0mm 290 W/m2
15:49 72.7 °F /  22.6 °C 62.6 °F /  17 °C 29.9in /  1011.1hPa North 10.9mph /  17.6km/h 14mph /  22.5km/h 70.9% 0in /  0.0mm 381 W/m2
15:54 72.9 °F /  22.7 °C 63.7 °F /  17.6 °C 29.9in /  1011.0hPa North 7.5mph /  12km/h 14mph /  22.5km/h 73% 0in /  0.0mm 911 W/m2
15:59 73.8 °F /  23.2 °C 64.4 °F /  18 °C 29.9in /  1010.9hPa NNE 8mph /  12.8km/h 9mph /  14.5km/h 72.7% 0in /  0.0mm 911 W/m2
16:04 74.5 °F /  23.6 °C 64.6 °F /  18.1 °C 29.9in /  1010.8hPa NNE 7.1mph /  11.4km/h 9mph /  14.5km/h 71.4% 0in /  0.0mm 896 W/m2
16:09 75.2 °F /  24 °C 65.3 °F /  18.5 °C 29.9in /  1010.8hPa NE 4.9mph /  7.9km/h 9mph /  14.5km/h 71.4% 0in /  0.0mm 840 W/m2
16:14 75.7 °F /  24.3 °C 65.3 °F /  18.5 °C 29.9in /  1010.8hPa NE 7.8mph /  12.5km/h 8mph /  12.9km/h 70.2% 0in /  0.0mm 733 W/m2
16:19 76.1 °F /  24.5 °C 65.7 °F /  18.7 °C 29.9in /  1010.8hPa NE 7.8mph /  12.6km/h 10mph /  16.1km/h 70.3% 0in /  0.0mm 728 W/m2
16:24 76.1 °F /  24.5 °C 65.7 °F /  18.7 °C 29.9in /  1010.8hPa ENE 6.8mph /  11km/h 10mph /  16.1km/h 70.4% 0in /  0.0mm 721 W/m2
16:29 76.5 °F /  24.7 °C 66 °F /  18.9 °C 29.9in /  1010.8hPa ENE 4.3mph /  6.9km/h 9mph /  14.5km/h 70% 0in /  0.0mm 693 W/m2
16:34 76.6 °F /  24.8 °C 65.8 °F /  18.8 °C 29.9in /  1010.9hPa ENE 5.9mph /  9.5km/h 8mph /  12.9km/h 69.4% 0in /  0.0mm 689 W/m2
16:39 76.5 °F /  24.7 °C 65.5 °F /  18.6 °C 29.9in /  1011.0hPa NE 7.5mph /  12km/h 8mph /  12.9km/h 68.8% 0in /  0.0mm 687 W/m2
16:44 76.1 °F /  24.5 °C 64.6 °F /  18.1 °C 29.9in /  1011.0hPa NNE 4.7mph /  7.6km/h 9mph /  14.5km/h 67.5% 0in /  0.0mm 671 W/m2
16:49 76.3 °F /  24.6 °C 65.1 °F /  18.4 °C 29.9in /  1011.1hPa NNE 6.5mph /  10.5km/h 6mph /  9.7km/h 68.3% 0in /  0.0mm 663 W/m2
16:54 76.8 °F /  24.9 °C 64.8 °F /  18.2 °C 29.9in /  1011.1hPa NNE 6.3mph /  10.1km/h 8mph /  12.9km/h 66.3% 0in /  0.0mm 659 W/m2
16:59 76.8 °F /  24.9 °C 64.6 °F /  18.1 °C 29.9in /  1011.0hPa ENE 5.2mph /  8.3km/h 7mph /  11.3km/h 65.7% 0in /  0.0mm 654 W/m2
17:04 77.4 °F /  25.2 °C 64.2 °F /  17.9 °C 29.9in /  1010.8hPa NE 5.2mph /  8.3km/h 7mph /  11.3km/h 64.3% 0in /  0.0mm 656 W/m2
17:09 77.2 °F /  25.1 °C 63.9 °F /  17.7 °C 29.9in /  1010.8hPa North 3.8mph /  6.1km/h 7mph /  11.3km/h 63.6% 0in /  0.0mm 633 W/m2
17:14 77 °F /  25 °C 64 °F /  17.8 °C 29.8in /  1010.7hPa North 3.5mph /  5.6km/h 5mph /  8km/h 64% 0in /  0.0mm 610 W/m2
17:18 77.4 °F /  25.2 °C 64.2 °F /  17.9 °C 29.8in /  1010.7hPa North 2.5mph /  4.1km/h 3mph /  4.8km/h 63.8% 0in /  0.0mm 573 W/m2
17:24 78.3 °F /  25.7 °C 64.8 °F /  18.2 °C 29.9in /  1010.8hPa NNE 2.9mph /  4.7km/h 4mph /  6.4km/h 63.1% 0in /  0.0mm 592 W/m2
17:29 78.8 °F /  26 °C 64.4 °F /  18 °C 29.8in /  1010.6hPa NNE 2.7mph /  4.4km/h 4mph /  6.4km/h 61.7% 0in /  0.0mm 587 W/m2
17:34 79.2 °F /  26.2 °C 64 °F /  17.8 °C 29.8in /  1010.5hPa North 3.8mph /  6.1km/h 4mph /  6.4km/h 60.2% 0in /  0.0mm 570 W/m2
17:39 79.2 °F /  26.2 °C 64.4 °F /  18 °C 29.8in /  1010.5hPa North 3.8mph /  6.1km/h 5mph /  8km/h 60.7% 0in /  0.0mm 552 W/m2
17:43 79.3 °F /  26.3 °C 64.9 °F /  18.3 °C 29.8in /  1010.4hPa North 3.3mph /  5.3km/h 4mph /  6.4km/h 61.2% 0in /  0.0mm 538 W/m2
17:49 79.5 °F /  26.4 °C 65.1 °F /  18.4 °C 29.8in /  1010.3hPa North 2.5mph /  4.1km/h 5mph /  8km/h 61.4% 0in /  0.0mm 522 W/m2
17:54 79.7 °F /  26.5 °C 64.9 °F /  18.3 °C 29.8in /  1010.3hPa NNE 3.4mph /  5.4km/h 3mph /  4.8km/h 60.7% 0in /  0.0mm 513 W/m2
17:59 79.9 °F /  26.6 °C 65.1 °F /  18.4 °C 29.8in /  1010.4hPa North 3.9mph /  6.3km/h 4mph /  6.4km/h 60.7% 0in /  0.0mm 517 W/m2
18:04 80.1 °F /  26.7 °C 64.8 °F /  18.2 °C 29.8in /  1010.4hPa North 4.3mph /  6.9km/h 5mph /  8km/h 59.6% 0in /  0.0mm 547 W/m2
18:09 79.9 °F /  26.6 °C 63.1 °F /  17.3 °C 29.8in /  1010.5hPa NNW 3.5mph /  5.6km/h 6mph /  9.7km/h 56.7% 0in /  0.0mm 564 W/m2
18:14 80.4 °F /  26.9 °C 63.1 °F /  17.3 °C 29.8in /  1010.5hPa NNW 3.5mph /  5.6km/h 4mph /  6.4km/h 55.8% 0in /  0.0mm 533 W/m2
18:19 80.6 °F /  27 °C 63 °F /  17.2 °C 29.8in /  1010.5hPa NNW 3.9mph /  6.3km/h 4mph /  6.4km/h 55.2% 0in /  0.0mm 490 W/m2
18:24 80.2 °F /  26.8 °C 63 °F /  17.2 °C 29.8in /  1010.5hPa NNE 4.4mph /  7.1km/h 5mph /  8km/h 55.8% 0in /  0.0mm 485 W/m2
18:28 80.2 °F /  26.8 °C 62.8 °F /  17.1 °C 29.8in /  1010.6hPa North 3.5mph /  5.6km/h 5mph /  8km/h 55.2% 0in /  0.0mm 459 W/m2
18:34 80.4 °F /  26.9 °C 63.1 °F /  17.3 °C 29.8in /  1010.7hPa NNE 2.9mph /  4.6km/h 4mph /  6.4km/h 55.8% 0in /  0.0mm 455 W/m2
18:39 80.6 °F /  27 °C 63.1 °F /  17.3 °C 29.8in /  1010.7hPa NNE 3.4mph /  5.4km/h 4mph /  6.4km/h 55.3% 0in /  0.0mm 431 W/m2
18:44 80.2 °F /  26.8 °C 62.6 °F /  17 °C 29.8in /  1010.7hPa NNE 2.8mph /  4.5km/h 4mph /  6.4km/h 55.2% 0in /  0.0mm 396 W/m2
18:49 80.1 °F /  26.7 °C 63.1 °F /  17.3 °C 29.9in /  1010.8hPa North 2.7mph /  4.4km/h 3mph /  4.8km/h 56.2% 0in /  0.0mm 380 W/m2
18:54 80.1 °F /  26.7 °C 63.7 °F /  17.6 °C 29.9in /  1010.9hPa North 2.4mph /  3.9km/h 3mph /  4.8km/h 57.5% 0in /  0.0mm 357 W/m2
18:59 80.8 °F /  27.1 °C 64.4 °F /  18 °C 29.9in /  1010.8hPa ENE 3.5mph /  5.6km/h 3.9mph /  6.3km/h 57.7% 0in /  0.0mm 338 W/m2
19:04 81.1 °F /  27.3 °C 64.2 °F /  17.9 °C 29.9in /  1010.8hPa ENE 3mph /  4.8km/h 6mph /  9.7km/h 56.6% 0in /  0.0mm 322 W/m2
19:09 81.1 °F /  27.3 °C 64.6 °F /  18.1 °C 29.9in /  1010.9hPa East 3mph /  4.9km/h 3mph /  4.8km/h 57.2% 0in /  0.0mm 309 W/m2
19:14 81.1 °F /  27.3 °C 64.6 °F /  18.1 °C 29.9in /  1010.9hPa ESE 3.1mph /  5km/h 5mph /  8km/h 57.2% 0in /  0.0mm 301 W/m2
19:19 80.6 °F /  27 °C 64.8 °F /  18.2 °C 29.9in /  1010.9hPa ESE 4.5mph /  7.2km/h 5mph /  8km/h 58.5% 0in /  0.0mm 271 W/m2
19:24 80.4 °F /  26.9 °C 65.1 °F /  18.4 °C 29.9in /  1010.9hPa East 3.1mph /  5km/h 6mph /  9.7km/h 59.7% 0in /  0.0mm 271 W/m2
19:29 80.6 °F /  27 °C 64.8 °F /  18.2 °C 29.9in /  1011.0hPa East 2.1mph /  3.3km/h 5mph /  8km/h 58.5% 0in /  0.0mm 258 W/m2
19:34 80.8 °F /  27.1 °C 64.9 °F /  18.3 °C 29.9in /  1011.0hPa East 2.5mph /  4km/h 2.5mph /  4km/h 58.8% 0in /  0.0mm 237 W/m2
19:39 80.8 °F /  27.1 °C 64.4 °F /  18 °C 29.9in /  1011.1hPa East 4.7mph /  7.5km/h 6mph /  9.7km/h 57.7% 0in /  0.0mm 225 W/m2
19:44 80.6 °F /  27 °C 64 °F /  17.8 °C 29.9in /  1011.1hPa East 3.4mph /  5.4km/h 6mph /  9.7km/h 57% 0in /  0.0mm 209 W/m2
19:49 80.8 °F /  27.1 °C 64.4 °F /  18 °C 29.9in /  1011.2hPa East 3.7mph /  6km/h 5mph /  8km/h 57.7% 0in /  0.0mm 188 W/m2
19:54 80.8 °F /  27.1 °C 64.6 °F /  18.1 °C 29.9in /  1011.2hPa East 3.2mph /  5.2km/h 5mph /  8km/h 58.2% 0in /  0.0mm 169 W/m2
19:59 80.6 °F /  27 °C 64.9 °F /  18.3 °C 29.9in /  1011.3hPa East 2.3mph /  3.7km/h 5mph /  8km/h 59% 0in /  0.0mm 153 W/m2
20:04 80.4 °F /  26.9 °C 65.3 °F /  18.5 °C 29.9in /  1011.3hPa East 1.9mph /  3.1km/h 3mph /  4.8km/h 60.2% 0in /  0.0mm 135 W/m2
20:09 80.6 °F /  27 °C 65.7 °F /  18.7 °C 29.9in /  1011.3hPa East 2.9mph /  4.6km/h 3.5mph /  5.6km/h 60.7% 0in /  0.0mm 118 W/m2
20:14 80.1 °F /  26.7 °C 65.7 °F /  18.7 °C 29.9in /  1011.3hPa East 4mph /  6.4km/h 5mph /  8km/h 61.4% 0in /  0.0mm 104 W/m2
20:19 79.5 °F /  26.4 °C 66.4 °F /  19.1 °C 29.9in /  1011.5hPa ESE 6.9mph /  11.1km/h 6mph /  9.7km/h 64.4% 0in /  0.0mm 90 W/m2
20:24 78.4 °F /  25.8 °C 66.4 °F /  19.1 °C 29.9in /  1011.6hPa ESE 5.8mph /  9.4km/h 9mph /  14.5km/h 66.8% 0in /  0.0mm 76 W/m2
20:29 77.7 °F /  25.4 °C 66.4 °F /  19.1 °C 29.9in /  1011.8hPa ESE 4.8mph /  7.8km/h 7mph /  11.3km/h 67.8% 0in /  0.0mm 63 W/m2
20:34 77.5 °F /  25.3 °C 66.4 °F /  19.1 °C 29.9in /  1011.8hPa SE 4.3mph /  6.9km/h 9mph /  14.5km/h 68.7% 0in /  0.0mm 53 W/m2
20:39 77.2 °F /  25.1 °C 66.2 °F /  19 °C 29.9in /  1012.0hPa ESE 10.3mph /  16.6km/h 8.5mph /  13.7km/h 69% 0in /  0.0mm 42 W/m2
20:44 76.6 °F /  24.8 °C 66 °F /  18.9 °C 29.9in /  1012.0hPa ESE 8.9mph /  14.4km/h 13mph /  20.9km/h 69.8% 0in /  0.0mm 33 W/m2
20:49 76.3 °F /  24.6 °C 66 °F /  18.9 °C 29.9in /  1012.2hPa ESE 8.1mph /  13km/h 10mph /  16.1km/h 70.6% 0in /  0.0mm 26 W/m2
20:53 75.7 °F /  24.3 °C 65.8 °F /  18.8 °C 29.9in /  1012.4hPa SE 7mph /  11.3km/h 9mph /  14.5km/h 71.4% 0in /  0.0mm 19 W/m2
20:59 75.4 °F /  24.1 °C 65.8 °F /  18.8 °C 29.9in /  1012.5hPa ESE 7.2mph /  11.6km/h 7mph /  11.3km/h 72.3% 0in /  0.0mm 12 W/m2
21:04 75.2 °F /  24 °C 65.7 °F /  18.7 °C 29.9in /  1012.6hPa ESE 8.7mph /  14km/h 9mph /  14.5km/h 72.1% 0in /  0.0mm 9 W/m2
21:09 75 °F /  23.9 °C 65.1 °F /  18.4 °C 29.9in /  1012.6hPa ESE 9.3mph /  14.9km/h 10mph /  16.1km/h 71.2% 0in /  0.0mm 7 W/m2
21:14 74.8 °F /  23.8 °C 64.8 °F /  18.2 °C 29.9in /  1012.6hPa ESE 8.9mph /  14.4km/h 12mph /  19.3km/h 71% 0in /  0.0mm 0 W/m2
21:19 74.7 °F /  23.7 °C 64.4 °F /  18 °C 29.9in /  1012.6hPa SE 9.1mph /  14.6km/h 12mph /  19.3km/h 70.4% 0in /  0.0mm 0 W/m2
21:24 74.5 °F /  23.6 °C 64.4 °F /  18 °C 29.9in /  1012.7hPa ESE 8.1mph /  13km/h 10mph /  16.1km/h 70.6% 0in /  0.0mm 0 W/m2
21:29 74.3 °F /  23.5 °C 64.2 °F /  17.9 °C 29.9in /  1012.8hPa ESE 7mph /  11.3km/h 12mph /  19.3km/h 70.8% 0in /  0.0mm 0 W/m2
21:34 74.1 °F /  23.4 °C 63.9 °F /  17.7 °C 29.9in /  1012.9hPa East 6.9mph /  11.1km/h 9mph /  14.5km/h 70.3% 0in /  0.0mm 0 W/m2
21:39 74.1 °F /  23.4 °C 63.7 °F /  17.6 °C 29.9in /  1013.2hPa ESE 8.1mph /  13km/h 9mph /  14.5km/h 70% 0in /  0.0mm 0 W/m2
21:44 73.9 °F /  23.3 °C 63.5 °F /  17.5 °C 29.9in /  1013.3hPa ESE 7.5mph /  12.1km/h 10mph /  16.1km/h 70% 0in /  0.0mm 0 W/m2
21:49 73.8 °F /  23.2 °C 63.5 °F /  17.5 °C 29.9in /  1013.3hPa SE 8.6mph /  13.8km/h 12mph /  19.3km/h 70.4% 0in /  0.0mm 0 W/m2
21:54 73.6 °F /  23.1 °C 63.7 °F /  17.6 °C 29.9in /  1013.5hPa ESE 8.4mph /  13.5km/h 10mph /  16.1km/h 71% 0in /  0.0mm 0 W/m2
21:59 73.4 °F /  23 °C 63.7 °F /  17.6 °C 29.9in /  1013.7hPa SE 8.2mph /  13.2km/h 10mph /  16.1km/h 71.5% 0in /  0.0mm 0 W/m2
22:04 73.2 °F /  22.9 °C 63.7 °F /  17.6 °C 29.9in /  1013.8hPa SE 7.4mph /  11.9km/h 10mph /  16.1km/h 72% 0in /  0.0mm 0 W/m2
22:09 73 °F /  22.8 °C 63.7 °F /  17.6 °C 29.9in /  1013.9hPa ESE 7.9mph /  12.7km/h 10mph /  16.1km/h 72.7% 0in /  0.0mm 0 W/m2
22:14 72.9 °F /  22.7 °C 63.7 °F /  17.6 °C 29.9in /  1014.0hPa SE 7.4mph /  11.9km/h 9mph /  14.5km/h 73.3% 0in /  0.0mm 0 W/m2
22:19 72.7 °F /  22.6 °C 63.9 °F /  17.7 °C 29.9in /  1014.1hPa ESE 9.4mph /  15.2km/h 9mph /  14.5km/h 74% 0in /  0.0mm 0 W/m2
22:24 72.5 °F /  22.5 °C 63.7 °F /  17.6 °C 30in /  1014.3hPa ESE 10.6mph /  17km/h 13mph /  20.9km/h 74% 0in /  0.0mm 0 W/m2
22:29 72.3 °F /  22.4 °C 63.5 °F /  17.5 °C 30in /  1014.3hPa ESE 10.8mph /  17.4km/h 13mph /  20.9km/h 74% 0in /  0.0mm 0 W/m2
22:34 72.1 °F /  22.3 °C 63.7 °F /  17.6 °C 30in /  1014.3hPa SE 10mph /  16.1km/h 14mph /  22.5km/h 74.7% 0in /  0.0mm 0 W/m2
22:39 72 °F /  22.2 °C 63.7 °F /  17.6 °C 30in /  1014.3hPa SE 11.6mph /  18.6km/h 14mph /  22.5km/h 75.3% 0in /  0.0mm 0 W/m2
22:44 71.8 °F /  22.1 °C 63.9 °F /  17.7 °C 30in /  1014.4hPa ESE 11.1mph /  17.9km/h 12mph /  19.3km/h 76.2% 0in /  0.0mm 0 W/m2
22:49 71.6 °F /  22 °C 64 °F /  17.8 °C 30in /  1014.4hPa ESE 9.4mph /  15.1km/h 13mph /  20.9km/h 77% 0in /  0.0mm 0 W/m2
22:54 71.4 °F /  21.9 °C 63.9 °F /  17.7 °C 30in /  1014.5hPa ESE 12mph /  19.3km/h 12mph /  19.3km/h 77% 0in /  0.0mm 0 W/m2
22:59 71.2 °F /  21.8 °C 63.7 °F /  17.6 °C 30in /  1014.6hPa ESE 10.8mph /  17.4km/h 14mph /  22.5km/h 77% 0in /  0.0mm 0 W/m2
23:04 71.2 °F /  21.8 °C 63.9 °F /  17.7 °C 30in /  1014.7hPa ESE 9.6mph /  15.4km/h 12mph /  19.3km/h 77.8% 0in /  0.0mm 0 W/m2
23:09 71.1 °F /  21.7 °C 64 °F /  17.8 °C 30in /  1014.7hPa ESE 10.7mph /  17.2km/h 12mph /  19.3km/h 78.2% 0in /  0.0mm 0 W/m2
23:14 71.1 °F /  21.7 °C 64 °F /  17.8 °C 30in /  1014.8hPa ESE 10.7mph /  17.3km/h 12mph /  19.3km/h 78.8% 0in /  0.0mm 0 W/m2
23:19 70.9 °F /  21.6 °C 64 °F /  17.8 °C 30in /  1014.9hPa SE 11.9mph /  19.2km/h 14mph /  22.5km/h 79% 0in /  0.0mm 0 W/m2
23:24 70.7 °F /  21.5 °C 64 °F /  17.8 °C 30in /  1014.9hPa East 9.3mph /  15km/h 15mph /  24.1km/h 79.5% 0in /  0.0mm 0 W/m2
23:29 70.7 °F /  21.5 °C 64.2 °F /  17.9 °C 30in /  1015.0hPa East 7.7mph /  12.4km/h 12mph /  19.3km/h 80% 0in /  0.0mm 0 W/m2
23:34 70.5 °F /  21.4 °C 64.2 °F /  17.9 °C 30in /  1015.0hPa East 5.6mph /  9km/h 9mph /  14.5km/h 80.3% 0in /  0.0mm 0 W/m2
Lodi Weather
Compliments of Weather Underground - 3.5 mb